Aviation Digital Data Service (ADDS)

Output produced by TAFs form (0157 UTC 22 January 2017)
found at http://www.aviationweather.gov/adds/tafs/
 
KBJC 220147Z 33006KT 30SM SCT070 BKN150 02/M03 A2954
KBJC 212340Z 2200/2224 35005KT P6SM SCT080 BKN150 
     FM220200 34006KT P6SM FEW060 BKN080 BKN100 
     FM220300 31008KT P6SM VCSH SCT045 BKN060 OVC100 
     FM220600 26010KT P6SM SCT080 BKN140 
     FM221200 21008KT P6SM FEW140 SCT220 
     FM221900 18008KT P6SM FEW220 
     FM222300 13012KT P6SM FEW080 SCT140 BKN220